METAR Data
IDs: Format: Raw Decoded Include TAF

Data at: 1716 UTC 21 Sep 2018

KHRL 211652Z 17012KT 10SM FEW035 32/25 A2991 RMK AO2 SLP126 T03220250
KHRL 211552Z 16012KT 10SM SCT025 BKN034 31/26 A2991 RMK AO2 SLP128 T03060256
KHRL 211523Z 17011KT 10SM SCT018 BKN026 30/27 A2991 RMK AO2 T03000267
KHRL 211452Z 16011KT 10SM CLR 29/27 A2990 RMK AO2 SLP124 T02940272 51004
KHRL 211352Z 14007KT 10SM CLR 27/27 A2990 RMK AO2 SLP123 T02670267
KHRL 211252Z 12005KT 10SM CLR 26/26 A2989 RMK AO2 SLP122 T02560256
KHRL 211152Z 12004KT 10SM CLR 26/26 A2989 RMK AO2 SLP120 T02560256 10261 20256 53007
KHRL 211052Z 13006KT 10SM CLR 26/26 A2987 RMK AO2 SLP116 T02610261
KHRL 210952Z AUTO 14007KT 10SM SCT019 26/26 A2987 RMK AO2 SLP113 T02610261
KHRL 210852Z AUTO 15005KT 10SM CLR 26/26 A2986 RMK AO2 SLP113 T02610261 56015
KHRL 210752Z AUTO 14008KT 10SM CLR 26/26 A2988 RMK AO2 SLP116 T02610256
KHRL 210652Z AUTO 14008KT 10SM CLR 26/26 A2989 RMK AO2 SLP122 T02610256
KHRL 210552Z AUTO 15007KT 10SM CLR 27/26 A2991 RMK AO2 SLP127 T02670256 10306 20267 403330250 50004
KHRL 210452Z 14007KT 10SM CLR 27/26 A2992 RMK AO2 SLP131 T02670261
KHRL 210352Z 15009KT 10SM CLR 27/26 A2991 RMK AO2 SLP128 T02720261
KHRL 210252Z 14009KT 10SM CLR 27/26 A2990 RMK AO2 SLP123 T02720256 53015
KHRL 210152Z 13010KT 10SM CLR 28/26 A2988 RMK AO2 SLP117 T02780256
KHRL 210052Z 14010KT 10SM CLR 28/25 A2987 RMK AO2 SLP113 T02830250
KHRL 202352Z 15014KT 10SM CLR 31/24 A2985 RMK AO2 SLP108 T03060244 10333 20306 53005
KHRL 202252Z 15013KT 10SM CLR 32/24 A2983 RMK AO2 SLP102 T03170239
KHRL 202152Z 14014KT 10SM FEW043 32/24 A2983 RMK AO2 SLP099 T03170244
KHRL 202052Z AUTO 14015KT 10SM CLR 32/25 A2984 RMK AO2 SLP103 T03220250 58022
KHRL 201952Z AUTO 15013KT 10SM FEW045 SCT055 BKN075 32/24 A2987 RMK AO2 SLP115 T03170244
KHRL 201852Z 16011KT 10SM BKN042 BKN055 33/25 A2989 RMK AO2 SLP121 T03280250
KHRL 201752Z 15012KT 10SM FEW039 SCT049 SCT060 32/25 A2990 RMK AO2 SLP125 T03220250 10328 20250 58007
KHRL 201652Z 13010KT 10SM FEW034 FEW047 31/25 A2991 RMK AO2 SLP129 T03110250
KHRL 201552Z 16012KT 10SM FEW030 31/26 A2992 RMK AO2 SLP132 T03110256
KHRL 201452Z 17009KT 10SM FEW018 SCT023 29/26 A2992 RMK AO2 SLP132 T02940261 53009
KHRL 201352Z 14010KT 10SM CLR 28/27 A2991 RMK AO2 SLP127 T02830267
KHRL 201252Z 15003KT 10SM CLR 26/26 A2990 RMK AO2 SLP124 T02560256
KHRL 201152Z 00000KT 10SM CLR 26/26 A2990 RMK AO2 SLP123 60000 70033 T02560256 10267 20256 53004
KHRL 201052Z 14005KT 10SM CLR 26/26 A2988 RMK AO2 SLP118 T02610261
KHRL 200952Z AUTO 00000KT 10SM CLR 26/26 A2988 RMK AO2 SLP118 T02610261
KHRL 200852Z AUTO 12005KT 10SM CLR 26/26 A2988 RMK AO2 SLP119 60000 T02610261 58010
KHRL 200752Z AUTO 14004KT 10SM CLR 26/26 A2990 RMK AO2 SLP125 T02610261
KHRL 200652Z AUTO 11006KT 10SM FEW060 SCT075 SCT095 27/26 A2990 RMK AO2 RAB32E48 SLP125 P0000 T02670261
KHRL 200552Z AUTO 14005KT 10SM CLR 27/26 A2991 RMK AO2 SLP130 T02670261 10289 20261 403220244 50004